• Join FlightAware (Why Join?)
  • Login
  • US Flag 
08:06AM EDT


 

Airport Tracker/Info


-or-


 

Live Flight TrackerFlight Track Log ✈ PDT4226 ✈ 22-Oct-2013 ✈ KPHL - KBGM

Flight Track Log - Related Links

Times and Time Zones

All times are in EDT time to prevent confusion due to time zone crossing. See the PDT4226 flight status page for this flight to view local times or setup timezone preferences in your user account.

Time Position Orientation Groundspeed Altitude Reporting Facility
EDT Latitude Longitude Course Direction KTS MPH feet Rate Location/Type
12:18PM 39.9000 -75.2333 311° West 120 138 600  Level Philadelphia TRACON
12:19PM 39.9167 -75.2833 294° West 119 137 2,200 1,440 Climbing Philadelphia TRACON
12:20PM 39.9167 -75.3167 270° West 122 140 3,600 1,380 Climbing Philadelphia TRACON
12:21PM 40.1725 -75.3329 311° West  Level Estimated
12:21PM 39.9333 -75.3667 294° West 113 130 5,000  Level Philadelphia TRACON
12:22PM 40.2079 -75.4225 297° West  Level FlightAware Approximate
12:22PM 39.9333 -75.4000 270° West 115 132 6,300  Level Philadelphia TRACON
12:23PM 40.2834 -75.4430 311° West  Level Estimated
12:23PM 39.9500 -75.4500 294° West 132 152 7,500  Level Philadelphia TRACON
12:24PM 39.9833 -75.4667 339° North 180 207 8,400 780 Climbing Philadelphia TRACON
12:25PM 40.0194 -75.4817 342° North 196 226 9,000 780 Climbing New York Center
12:26PM 40.0625 -75.5008 341° North 189 217 9,900 480 Climbing New York Center
12:27PM 40.1194 -75.5375 334° Northwest 196 226 10,000  Climbing New York Center
12:28PM 40.1767 -75.5603 343° North 225 259 10,000 480 Level New York Center
12:29PM 40.2367 -75.5753 349° North 231 266 11,000 960 Climbing New York Center
12:30PM 40.2847 -75.6194 325° Northwest 196 226 12,000 480 Climbing New York Center
12:31PM 40.3353 -75.6611 328° Northwest 204 235 12,000 600 Level New York Center
12:32PM 40.3794 -75.7025 324° Northwest 209 241 13,200 960 Climbing New York Center
12:33PM 40.4197 -75.7353 328° Northwest 202 232 14,000 360 Climbing New York Center
12:34PM 40.4678 -75.7797 325° Northwest 202 232 14,000  Level New York Center
12:35PM 40.5281 -75.8306 327° Northwest 216 249 14,000  Level New York Center
12:36PM 40.5869 -75.8703 333° Northwest 230 265 14,000  Level New York Center
12:37PM 40.6431 -75.9183 327° Northwest 236 272 14,000  Level New York Center
12:38PM 40.6931 -75.9658 324° Northwest 241 277 14,000  Level New York Center
12:39PM 40.7517 -76.0114 330° Northwest 246 283 14,000  Level New York Center
12:40PM 40.8036 -76.0619 324° Northwest 246 283 14,000  Level New York Center
12:41PM 40.8656 -76.1189 325° Northwest 241 277 14,000  Level New York Center
12:42PM 40.9261 -76.1622 332° Northwest 246 283 14,000  Level New York Center
12:43PM 40.9822 -76.2081 328° Northwest 246 283 14,000  Level New York Center
12:44PM 41.0461 -76.2242 349° North 246 283 14,000  Level New York Center
12:45PM 41.1239 -76.2111 North 260 299 14,000  Level New York Center
12:46PM 41.2094 -76.2069 North 282 325 14,000  Level New York Center
12:47PM 41.2867 -76.2019 North 277 319 14,000  Level New York Center
12:48PM 41.3642 -76.1944 North 277 319 14,000  Level New York Center
12:49PM 41.4331 -76.1917 North 277 319 14,000  Level New York Center
12:50PM 41.5103 -76.1897 North 277 319 14,000 -600 Level New York Center
12:51PM 41.6000 -76.1831 North 277 319 12,800 -1,380 Descending New York Center
12:52PM 41.6839 -76.1731 North 294 338 11,300 -1,500 Descending New York Center
12:53PM 41.7633 -76.1656 North 294 338 9,800 -1,500 Descending New York Center
12:54PM 41.8339 -76.1686 358° North 288 331 8,400 -1,440 Descending New York Center
12:55PM 41.9142 -76.1472 11° North 269 310 7,000 -1,320 Descending New York Center
12:56PM 41.9778 -76.1217 17° North 252 290 5,800 -1,200 Descending New York Center
12:57PM 42.0333 -76.0872 25° Northeast 222 255 4,600 -900 Descending New York Center
12:58PM 42.0794 -76.0322 42° Northeast 217 250 4,000 -600 Descending New York Center
12:59PM 42.1175 -75.9764 47° Northeast 204 235 3,500 -600 Descending New York Center
01:00PM 42.1483 -75.9342 45° Northeast 185 213 2,800 -660 Descending New York Center
01:01PM 42.1789 -75.9506 338° Northwest 122 140 2,200 -300 Descending New York Center
01:02PM 42.2089 -75.9278 29° Northeast 122 140 2,200  Level New York Center